Oshawa Airport
CYOO : now visible

Airfield :











YOU CAN JOIN US ON...

 
LOGIN :

Register | Disclaimer

   EN    FR    IT 

 









Legend :    VFR   Marginal VFR   IFR   Intensive IFR   Very Intensive IFR
Visi :
Ceiling :
>= 8 km
>= 3000ft
5 to 8 km
1000 to 3000 ft
1500m to 5 km
500 to 1000 ft
800 to 1500m
200 to 500 ft
< 800m
< 200 ft
Symbols :   Thunderstorms  Fog  Heavy snow  Heavy precipitations  Wind > 20 kt






- Airport Elevation : 459 ft
- IATA code : YOO


CYOO - Oshawa

CURRENT METAR :
  • 230800Z AUTO VRB02KT 9SM -RA OVC110 19/16 A2997 RMK SLP150 DENSITY ALT 1000FT

EXPIRED METARs :
  • 230741Z AUTO 01005KT 9SM -RA BKN110 OVC130 19/15 A2997 RMK SLP152 DENSITY ALT 1100FT
  • 230700Z AUTO 33004KT 9SM BKN160 OVC180 21/14 A2998 RMK SLP152 DENSITY ALT 1200FT
  • 230600Z AUTO VRB02KT 9SM BKN110 BKN180 OVC210 19/16 A2998 RMK SLP152 DENSITY ALT 1000FT
  • 230500Z AUTO 00000KT 9SM OVC190 19/16 A2997 RMK SLP151 DENSITY ALT 1100FT
  • 230400Z AUTO 00000KT 9SM FEW096 SCT190 BKN220 OVC240 21/16 A2997 RMK SLP150 DENSITY ALT 1200FT

TAF TAF CYOO
Valid from the 23 at 08:00 until the 23 at 20:00 UTC


230742Z 2308/2320 VRB03KT P6SM BKN240
FM231500 18005KT P6SM SCT060
TEMPO 2319/2320 P6SM -SHRA BKN060 RMK FCST BASED ON AUTO OBS. NXT FCST BY 231400Z
CZYZ FIR / North America



MET'MAP, your aeronautical weather chart ! - Copyright ORBIFLY December 2007 - Disclaimer

ORBIFLY MET'MAP TEAM :

Programming & Development : Alexandra Zaïnal
Original concept : Baudouin d'Aumeries
Technical & hardware support : Manuel Goepfert
Assistance : Marc-Olivier Méhu




SOURCES & CREDITS :

   NOAA       Earth
Advisory